Time;durP1;ratioP1;P1;durP2;ratioP2;P2;SDS_P1;SDS_P2;PMS_P1;PMS_P2;Temp;Humidity;BMP_temperature;BMP_pressure;BME280_temperature;BME280_humidity;BME280_pressure;Samples;Min_cycle;Max_cycle;Signal;HPM_P1;HPM_P2
2023/05/15 00:02:11;;;;;;;6.25;5.60;;;12.40;88.60;;;;;;5032516;28;20033;-62
2023/05/15 00:04:37;;;;;;;6.70;5.68;;;12.40;88.60;;;;;;5033731;28;20045;-63
2023/05/15 00:07:02;;;;;;;6.20;5.45;;;12.40;88.80;;;;;;5031437;28;20037;-63
2023/05/15 00:09:28;;;;;;;6.15;5.55;;;12.50;88.80;;;;;;5030632;28;20041;-62
2023/05/15 00:11:54;;;;;;;6.93;5.13;;;12.40;88.80;;;;;;5033056;28;20095;-62
2023/05/15 00:14:19;;;;;;;6.65;5.93;;;12.50;88.80;;;;;;5033622;28;20633;-62
2023/05/15 00:16:45;;;;;;;6.68;5.75;;;12.50;89.70;;;;;;5030902;28;20033;-63
2023/05/15 00:19:10;;;;;;;7.15;5.63;;;12.50;88.90;;;;;;5033863;28;20043;-62
2023/05/15 00:21:36;;;;;;;5.72;5.07;;;12.50;88.80;;;;;;5033020;28;20029;-61
2023/05/15 00:24:02;;;;;;;6.03;5.43;;;12.50;88.80;;;;;;5031273;28;20037;-63
2023/05/15 00:26:27;;;;;;;5.80;5.20;;;12.50;88.80;;;;;;5028656;28;20041;-62
2023/05/15 00:28:53;;;;;;;6.40;5.80;;;12.60;88.80;;;;;;5032460;28;20040;-63
2023/05/15 00:31:19;;;;;;;6.63;5.60;;;12.50;88.60;;;;;;5033405;28;20044;-62
2023/05/15 00:33:45;;;;;;;7.60;5.22;;;12.60;88.80;;;;;;5031359;28;20033;-63
2023/05/15 00:36:10;;;;;;;5.78;5.28;;;12.60;88.80;;;;;;5034036;28;20029;-62
2023/05/15 00:38:36;;;;;;;6.53;5.80;;;12.60;88.90;;;;;;5034766;28;20447;-62
2023/05/15 00:41:02;;;;;;;6.50;5.65;;;12.60;88.90;;;;;;5033172;28;20044;-63
2023/05/15 00:43:29;;;;;;;6.03;5.35;;;12.60;88.80;;;;;;5032275;28;20030;-63
2023/05/15 00:45:57;;;;;;;5.60;5.10;;;12.60;88.80;;;;;;5032931;28;20860;-62
2023/05/15 00:48:24;;;;;;;6.30;5.20;;;12.60;88.70;;;;;;5033038;28;20025;-62
2023/05/15 00:50:50;;;;;;;6.38;5.72;;;12.60;88.70;;;;;;5031907;28;20032;-63
2023/05/15 00:53:17;;;;;;;6.10;5.47;;;12.70;88.70;;;;;;5034227;28;20033;-61
2023/05/15 00:55:45;;;;;;;5.88;5.10;;;12.70;88.70;;;;;;5035167;28;20042;-63
2023/05/15 00:58:13;;;;;;;6.47;4.93;;;12.70;88.60;;;;;;5036064;28;20036;-63
2023/05/15 01:00:39;;;;;;;6.50;5.35;;;12.70;88.50;;;;;;5032619;28;20040;-63
2023/05/15 01:03:05;;;;;;;5.93;5.43;;;12.70;88.40;;;;;;5033378;28;20057;-62
2023/05/15 01:05:31;;;;;;;5.95;5.35;;;12.70;88.30;;;;;;5038562;28;20087;-62
2023/05/15 01:08:21;;;;;;;5.32;4.82;;;12.70;88.30;;;;;;5038134;28;20036;-62
2023/05/15 01:10:50;;;;;;;7.00;5.50;;;12.70;88.40;;;;;;5038264;28;20037;-61
2023/05/15 01:13:19;;;;;;;6.13;5.53;;;12.70;88.00;;;;;;5040138;28;20034;-62
2023/05/15 01:15:45;;;;;;;9.10;5.80;;;12.70;88.00;;;;;;5040522;28;20033;-63
2023/05/15 01:18:10;;;;;;;6.15;5.18;;;12.70;88.00;;;;;;5039204;28;20404;-62
2023/05/15 01:20:58;;;;;;;8.82;5.65;;;12.60;88.00;;;;;;5033082;28;20416;-62
2023/05/15 01:23:33;;;;;;;6.45;5.10;;;12.70;88.40;;;;;;5032935;28;20159;-61
2023/05/15 01:26:07;;;;;;;9.23;6.03;;;12.60;88.10;;;;;;5032275;28;20170;-62
2023/05/15 01:28:38;;;;;;;7.75;5.93;;;12.60;88.00;;;;;;5030824;28;20057;-60
2023/05/15 01:31:13;;;;;;;7.97;5.75;;;12.60;87.90;;;;;;5031941;28;20468;-62
2023/05/15 01:33:43;;;;;;;6.22;5.43;;;12.60;87.90;;;;;;5032831;28;20098;-62
2023/05/15 01:36:20;;;;;;;7.53;6.07;;;12.60;87.80;;;;;;5032595;28;20520;-62
2023/05/15 01:38:50;;;;;;;6.50;5.80;;;12.60;88.00;;;;;;5033008;28;20052;-62
2023/05/15 01:41:24;;;;;;;8.02;5.95;;;12.50;87.90;;;;;;5032255;28;20037;-62
2023/05/15 01:43:56;;;;;;;10.00;5.97;;;12.50;87.90;;;;;;5031890;28;20041;-63
2023/05/15 01:46:24;;;;;;;6.65;5.50;;;12.50;87.80;;;;;;5032757;28;20069;-62
2023/05/15 01:48:50;;;;;;;7.35;6.30;;;12.50;87.80;;;;;;5032272;28;20033;-63
2023/05/15 01:51:17;;;;;;;7.50;5.90;;;12.50;87.80;;;;;;5033182;28;20056;-63
2023/05/15 01:53:45;;;;;;;6.85;6.00;;;12.50;88.00;;;;;;5037655;28;20457;-63
2023/05/15 01:56:13;;;;;;;7.85;6.35;;;12.50;87.90;;;;;;5036524;28;20040;-61
2023/05/15 01:58:40;;;;;;;8.35;5.93;;;12.40;88.00;;;;;;5032414;28;20547;-61
2023/05/15 02:01:06;;;;;;;8.13;5.65;;;12.40;88.00;;;;;;5031123;28;20060;-62
2023/05/15 02:03:33;;;;;;;6.40;5.57;;;12.40;88.00;;;;;;5034569;28;20459;-63
2023/05/15 02:06:03;;;;;;;6.22;5.53;;;12.40;88.10;;;;;;5033736;28;20432;-63
2023/05/15 02:08:31;;;;;;;5.75;5.15;;;12.40;88.30;;;;;;5036268;28;20033;-61
2023/05/15 02:10:59;;;;;;;6.55;5.68;;;12.40;88.10;;;;;;5038414;28;20650;-63
2023/05/15 02:13:26;;;;;;;7.40;5.20;;;12.40;88.10;;;;;;5038483;28;20046;-63
2023/05/15 02:15:52;;;;;;;6.30;5.30;;;12.40;88.80;;;;;;5039107;28;20469;-62
2023/05/15 02:18:17;;;;;;;9.55;5.90;;;12.40;88.10;;;;;;5037065;28;20033;-62
2023/05/15 02:20:43;;;;;;;5.80;5.22;;;12.40;88.00;;;;;;5036101;28;20540;-63
2023/05/15 02:23:09;;;;;;;6.38;5.70;;;12.40;88.00;;;;;;5032670;28;20551;-63
2023/05/15 02:26:07;;;;;;;7.68;5.03;;;12.40;87.90;;;;;;5032047;28;20452;-63
2023/05/15 02:28:41;;;;;;;5.80;5.20;;;12.40;88.00;;;;;;5031197;28;20088;-61
2023/05/15 02:31:16;;;;;;;6.18;5.57;;;12.40;87.80;;;;;;5029956;28;20051;-62
2023/05/15 02:33:56;;;;;;;5.93;5.28;;;12.40;87.80;;;;;;5031511;28;20131;-62
2023/05/15 02:36:28;;;;;;;6.07;5.47;;;12.40;87.90;;;;;;5031432;28;20433;-62
2023/05/15 02:38:55;;;;;;;9.60;5.68;;;12.40;87.80;;;;;;5032671;28;20451;-63
2023/05/15 02:41:21;;;;;;;6.38;5.63;;;12.30;87.80;;;;;;5030722;28;20045;-63
2023/05/15 02:43:50;;;;;;;5.90;5.40;;;12.30;88.00;;;;;;5029689;28;20289;-63
2023/05/15 02:46:18;;;;;;;6.13;5.35;;;12.30;88.10;;;;;;5032495;28;20034;-62
2023/05/15 02:48:44;;;;;;;6.40;5.53;;;12.40;88.10;;;;;;5030828;28;20385;-62
2023/05/15 02:51:12;;;;;;;6.05;5.40;;;12.30;88.00;;;;;;5030040;28;20078;-62
2023/05/15 02:53:41;;;;;;;5.85;5.35;;;12.30;88.00;;;;;;5034386;28;20492;-61
2023/05/15 02:56:07;;;;;;;6.05;5.45;;;12.30;88.00;;;;;;5034369;28;20034;-62
2023/05/15 02:58:34;;;;;;;5.68;5.07;;;12.30;88.00;;;;;;5034967;28;20102;-64
2023/05/15 03:00:59;;;;;;;6.40;5.38;;;12.30;87.90;;;;;;5032386;28;20499;-63
2023/05/15 03:03:25;;;;;;;6.65;5.07;;;12.30;88.00;;;;;;5030847;28;20052;-63
2023/05/15 03:05:51;;;;;;;6.65;5.35;;;12.30;87.90;;;;;;5031691;28;20041;-63
2023/05/15 03:08:18;;;;;;;6.18;5.57;;;12.30;88.00;;;;;;5033996;28;21776;-62
2023/05/15 03:10:43;;;;;;;6.65;4.93;;;12.30;88.00;;;;;;5033715;28;20037;-62
2023/05/15 03:13:09;;;;;;;8.23;5.25;;;12.30;88.10;;;;;;5032782;28;20413;-62
2023/05/15 03:15:35;;;;;;;5.38;4.88;;;12.30;88.10;;;;;;5034196;28;20489;-62
2023/05/15 03:18:00;;;;;;;6.00;4.80;;;12.30;88.10;;;;;;5038976;28;20055;-62
2023/05/15 03:20:26;;;;;;;6.10;4.93;;;12.30;88.10;;;;;;5032284;28;20041;-63
2023/05/15 03:22:52;;;;;;;5.45;4.90;;;12.30;88.10;;;;;;5034002;28;20438;-63
2023/05/15 03:25:17;;;;;;;5.65;5.00;;;12.30;88.10;;;;;;5034474;28;20037;-61
2023/05/15 03:27:43;;;;;;;5.40;4.90;;;12.30;88.10;;;;;;5033363;28;20060;-62
2023/05/15 03:30:09;;;;;;;5.10;4.57;;;12.30;88.00;;;;;;5033917;28;20107;-62
2023/05/15 03:32:34;;;;;;;7.10;4.97;;;12.30;88.00;;;;;;5030288;28;20624;-63
2023/05/15 03:35:00;;;;;;;5.28;4.78;;;12.30;88.00;;;;;;5032699;28;20443;-63
2023/05/15 03:37:25;;;;;;;5.80;5.18;;;12.30;88.00;;;;;;5033531;28;20459;-61
2023/05/15 03:39:51;;;;;;;7.68;5.70;;;12.30;88.00;;;;;;5033978;28;20034;-62
2023/05/15 03:42:22;;;;;;;6.10;5.15;;;12.30;88.00;;;;;;5033645;28;20048;-62
2023/05/15 03:44:49;;;;;;;6.90;5.10;;;12.30;87.90;;;;;;5031086;28;20106;-63
2023/05/15 03:47:14;;;;;;;6.80;5.28;;;12.30;87.80;;;;;;5032666;28;20037;-62
2023/05/15 03:49:41;;;;;;;5.72;5.10;;;12.30;87.80;;;;;;5031301;28;20044;-62
2023/05/15 03:52:07;;;;;;;6.85;5.20;;;12.30;87.80;;;;;;5029147;28;20080;-63
2023/05/15 03:54:33;;;;;;;6.40;5.22;;;12.30;87.80;;;;;;5032564;28;20481;-62
2023/05/15 03:56:58;;;;;;;7.05;5.35;;;12.30;88.60;;;;;;5034637;28;20447;-63
2023/05/15 03:59:24;;;;;;;5.65;5.03;;;12.30;87.90;;;;;;5031964;28;20041;-61
2023/05/15 04:01:50;;;;;;;5.50;5.00;;;12.30;88.00;;;;;;5028811;28;20216;-63
2023/05/15 04:04:15;;;;;;;7.25;5.68;;;12.20;87.90;;;;;;5028912;28;20501;-62
2023/05/15 04:06:41;;;;;;;5.82;5.18;;;12.20;88.00;;;;;;5029236;28;21772;-63
2023/05/15 04:09:06;;;;;;;7.63;5.38;;;12.20;88.00;;;;;;5032182;28;20539;-63
2023/05/15 04:11:33;;;;;;;6.97;5.05;;;12.20;88.00;;;;;;5033997;28;20033;-63
2023/05/15 04:13:59;;;;;;;6.10;5.50;;;12.20;88.10;;;;;;5034158;28;20552;-61
2023/05/15 04:16:25;;;;;;;5.85;5.10;;;12.20;88.10;;;;;;5031349;28;20048;-63
2023/05/15 04:18:50;;;;;;;6.05;5.43;;;12.20;88.10;;;;;;5033979;28;20029;-62
2023/05/15 04:21:16;;;;;;;7.65;5.65;;;12.20;88.20;;;;;;5032861;28;20557;-63
2023/05/15 04:23:41;;;;;;;6.65;5.60;;;12.20;88.30;;;;;;5031751;28;20060;-61
2023/05/15 04:26:08;;;;;;;6.30;5.70;;;12.20;88.30;;;;;;5030219;28;20030;-61
2023/05/15 04:28:33;;;;;;;5.53;5.03;;;12.20;88.50;;;;;;5031600;28;20037;-63
2023/05/15 04:31:00;;;;;;;7.25;5.97;;;12.20;88.50;;;;;;5026884;28;20378;-63
2023/05/15 04:33:25;;;;;;;6.35;5.43;;;12.20;88.60;;;;;;5031670;28;20045;-63
2023/05/15 04:35:52;;;;;;;6.65;5.85;;;12.20;88.50;;;;;;5033743;28;20217;-63
2023/05/15 04:38:17;;;;;;;6.00;5.40;;;12.20;88.60;;;;;;5034723;28;20410;-62
2023/05/15 04:40:43;;;;;;;7.55;5.55;;;12.20;88.60;;;;;;5035308;28;20040;-62
2023/05/15 04:43:09;;;;;;;6.03;5.43;;;12.20;88.60;;;;;;5033514;28;20038;-62
2023/05/15 04:45:34;;;;;;;6.10;5.40;;;12.30;88.80;;;;;;5036705;28;20036;-63
2023/05/15 04:48:00;;;;;;;5.72;5.20;;;12.30;88.80;;;;;;5034642;28;20037;-63
2023/05/15 04:50:26;;;;;;;268.83;133.82;;;12.30;88.70;;;;;;5035399;28;20041;-62
2023/05/15 04:52:51;;;;;;;55.78;33.05;;;12.30;88.60;;;;;;5030851;28;20073;-62
2023/05/15 04:55:17;;;;;;;23.15;15.02;;;12.30;88.60;;;;;;5036366;28;20440;-61
2023/05/15 04:57:42;;;;;;;11.40;9.50;;;12.30;88.50;;;;;;5036403;28;20078;-62
2023/05/15 05:00:12;;;;;;;10.38;9.38;;;12.40;88.60;;;;;;5035395;28;20056;-62
2023/05/15 05:02:38;;;;;;;7.32;6.63;;;12.40;88.60;;;;;;5035166;28;20045;-63
2023/05/15 05:05:06;;;;;;;6.82;6.13;;;12.30;88.50;;;;;;5035988;28;20049;-63
2023/05/15 05:07:32;;;;;;;6.60;6.00;;;12.40;88.60;;;;;;5037015;28;20083;-63
2023/05/15 05:09:57;;;;;;;8.68;6.20;;;12.40;88.60;;;;;;5036835;28;20033;-63
2023/05/15 05:12:23;;;;;;;8.02;7.22;;;12.40;88.60;;;;;;5034631;28;20159;-63
2023/05/15 05:14:48;;;;;;;7.60;6.80;;;12.40;88.70;;;;;;5037325;28;20034;-63
2023/05/15 05:17:14;;;;;;;7.07;6.38;;;12.40;88.60;;;;;;5040430;28;20029;-63
2023/05/15 05:19:40;;;;;;;9.82;6.68;;;12.40;88.60;;;;;;5036673;28;20523;-62
2023/05/15 05:22:06;;;;;;;7.82;6.20;;;12.50;88.60;;;;;;5040661;28;20037;-63
2023/05/15 05:24:34;;;;;;;7.07;6.38;;;12.50;88.60;;;;;;5038235;28;20505;-62
2023/05/15 05:27:00;;;;;;;7.22;6.53;;;12.50;88.60;;;;;;5039468;28;20119;-62
2023/05/15 05:29:25;;;;;;;7.28;6.57;;;12.60;88.70;;;;;;5038444;28;20037;-63
2023/05/15 05:31:51;;;;;;;7.15;5.65;;;12.50;88.60;;;;;;5039450;28;20091;-63
2023/05/15 05:34:18;;;;;;;8.20;6.40;;;12.60;88.70;;;;;;5038874;28;20033;-63
2023/05/15 05:36:44;;;;;;;7.78;6.32;;;12.60;88.70;;;;;;5038270;28;20048;-63
2023/05/15 05:39:10;;;;;;;6.95;6.05;;;12.60;88.70;;;;;;5038730;28;20029;-63
2023/05/15 05:41:35;;;;;;;7.93;7.13;;;12.60;88.70;;;;;;5039090;28;20386;-61
2023/05/15 05:44:01;;;;;;;12.38;8.18;;;12.70;88.80;;;;;;5038989;28;20060;-63
2023/05/15 05:46:27;;;;;;;11.30;9.30;;;12.60;88.60;;;;;;5038006;28;20039;-62
2023/05/15 05:48:52;;;;;;;9.07;7.50;;;12.70;88.60;;;;;;5022926;28;20040;-63
2023/05/15 05:51:18;;;;;;;7.90;7.07;;;12.70;88.50;;;;;;5042522;28;20037;-62
2023/05/15 05:53:43;;;;;;;8.18;6.82;;;12.70;88.50;;;;;;5029389;28;20041;-62
2023/05/15 05:56:09;;;;;;;6.78;5.90;;;12.80;88.50;;;;;;5021052;28;20034;-63
2023/05/15 05:58:35;;;;;;;5.90;5.30;;;12.70;88.50;;;;;;5020140;28;20053;-61
2023/05/15 06:01:01;;;;;;;6.82;5.90;;;12.80;88.60;;;;;;5017666;28;20061;-63
2023/05/15 06:03:26;;;;;;;8.13;5.32;;;12.80;88.60;;;;;;5019191;28;20124;-62
2023/05/15 06:05:52;;;;;;;5.57;5.07;;;12.80;88.70;;;;;;5017846;28;20090;-62
2023/05/15 06:08:18;;;;;;;6.20;5.60;;;12.90;89.00;;;;;;5018638;28;20567;-63
2023/05/15 06:10:44;;;;;;;7.47;5.50;;;12.90;89.00;;;;;;5019432;28;20352;-62
2023/05/15 06:13:10;;;;;;;8.43;6.05;;;13.00;89.00;;;;;;5018872;28;20046;-63
2023/05/15 06:15:36;;;;;;;6.60;5.78;;;13.00;88.90;;;;;;5027490;28;20071;-63
2023/05/15 06:18:02;;;;;;;6.47;5.80;;;13.00;88.90;;;;;;5038697;28;20042;-62
2023/05/15 06:20:27;;;;;;;6.97;5.95;;;13.00;89.70;;;;;;5037327;28;20119;-63
2023/05/15 06:22:53;;;;;;;7.25;6.53;;;13.00;89.10;;;;;;5039180;28;20033;-63
2023/05/15 06:25:19;;;;;;;6.90;5.72;;;13.00;89.20;;;;;;5037892;28;20084;-62
2023/05/15 06:27:46;;;;;;;6.13;5.53;;;13.10;89.30;;;;;;5038060;28;20360;-63
2023/05/15 06:30:12;;;;;;;6.18;5.57;;;13.10;89.30;;;;;;5039156;28;20037;-63
2023/05/15 06:32:38;;;;;;;7.18;6.00;;;13.20;89.20;;;;;;5035907;28;20406;-62
2023/05/15 06:35:04;;;;;;;7.05;6.07;;;13.20;89.20;;;;;;5037169;28;20502;-63
2023/05/15 06:37:30;;;;;;;7.07;5.88;;;13.20;89.30;;;;;;5038612;28;20079;-62
2023/05/15 06:39:56;;;;;;;8.68;6.78;;;13.30;89.30;;;;;;5038614;28;20029;-63
2023/05/15 06:42:21;;;;;;;7.47;6.43;;;13.30;89.10;;;;;;5037627;28;20531;-63
2023/05/15 06:44:48;;;;;;;6.70;5.38;;;13.30;89.10;;;;;;5038304;28;20040;-62
2023/05/15 06:47:14;;;;;;;6.20;4.97;;;13.30;89.10;;;;;;5037994;28;20044;-62
2023/05/15 06:49:40;;;;;;;5.93;5.22;;;13.40;89.10;;;;;;5038197;28;20041;-62
2023/05/15 06:52:05;;;;;;;6.03;5.10;;;13.50;89.00;;;;;;5037263;28;20070;-63
2023/05/15 06:54:31;;;;;;;5.85;4.60;;;13.50;88.80;;;;;;5039636;28;20032;-63
2023/05/15 06:56:57;;;;;;;6.13;4.68;;;13.50;88.40;;;;;;5035889;28;20037;-63
2023/05/15 06:59:22;;;;;;;9.68;4.97;;;13.60;88.30;;;;;;5038312;28;21114;-63
2023/05/15 07:01:48;;;;;;;5.65;5.05;;;13.60;88.50;;;;;;5034821;28;20029;-62
2023/05/15 07:04:13;;;;;;;5.20;4.65;;;13.70;88.30;;;;;;5037410;28;20469;-63
2023/05/15 07:06:39;;;;;;;5.20;4.70;;;13.70;88.30;;;;;;5037029;28;20032;-62
2023/05/15 07:09:05;;;;;;;5.50;4.53;;;13.80;88.50;;;;;;5036674;28;20033;-63
2023/05/15 07:11:32;;;;;;;4.97;4.50;;;13.80;88.50;;;;;;5036335;28;20025;-64
2023/05/15 07:13:57;;;;;;;4.90;4.40;;;13.90;88.50;;;;;;5037785;28;20068;-63
2023/05/15 07:16:23;;;;;;;4.85;4.43;;;13.90;88.50;;;;;;5037197;28;20091;-62
2023/05/15 07:18:49;;;;;;;7.00;4.50;;;14.00;88.30;;;;;;5035750;28;20037;-63
2023/05/15 07:21:14;;;;;;;4.80;4.20;;;14.10;88.30;;;;;;5038910;28;20039;-62
2023/05/15 07:23:40;;;;;;;4.80;4.38;;;14.20;88.20;;;;;;5035920;28;20064;-63
2023/05/15 07:26:05;;;;;;;5.03;4.00;;;14.30;88.10;;;;;;5036271;28;20037;-63
2023/05/15 07:28:31;;;;;;;4.50;4.10;;;14.30;88.00;;;;;;5037569;28;20485;-63
2023/05/15 07:30:56;;;;;;;4.22;3.83;;;14.40;87.60;;;;;;5037480;28;20580;-63
2023/05/15 07:33:22;;;;;;;4.97;4.35;;;14.50;87.10;;;;;;5036052;28;20060;-63
2023/05/15 07:35:49;;;;;;;4.80;4.40;;;14.50;86.90;;;;;;5038017;28;20515;-63
2023/05/15 07:38:15;;;;;;;4.57;4.18;;;14.60;86.90;;;;;;5038557;28;20034;-64
2023/05/15 07:40:40;;;;;;;4.97;4.47;;;14.60;86.70;;;;;;5036415;28;20043;-63
2023/05/15 07:43:06;;;;;;;4.60;4.18;;;14.70;86.60;;;;;;5037328;28;20121;-63
2023/05/15 07:45:32;;;;;;;4.45;4.05;;;14.70;86.40;;;;;;5028808;28;20049;-63
2023/05/15 07:47:57;;;;;;;5.10;4.60;;;14.70;86.30;;;;;;5016843;28;20654;-64
2023/05/15 07:50:23;;;;;;;5.03;4.53;;;14.80;86.30;;;;;;5016500;28;20188;-63
2023/05/15 07:52:49;;;;;;;4.70;3.90;;;14.80;85.90;;;;;;5018410;28;20465;-63
2023/05/15 07:55:14;;;;;;;5.13;4.03;;;14.80;85.80;;;;;;5024166;28;20087;-63
2023/05/15 07:57:40;;;;;;;5.45;4.35;;;14.90;85.80;;;;;;5036866;28;20133;-64
2023/05/15 08:00:11;;;;;;;5.47;3.83;;;14.90;85.70;;;;;;5036207;28;20033;-63
2023/05/15 08:02:37;;;;;;;3.90;3.60;;;15.00;85.50;;;;;;5036360;28;20033;-63
2023/05/15 08:05:03;;;;;;;5.90;4.43;;;15.10;85.50;;;;;;5037268;28;20040;-63
2023/05/15 08:07:31;;;;;;;5.53;4.05;;;15.10;85.50;;;;;;5034570;28;20084;-63
2023/05/15 08:09:57;;;;;;;5.07;4.40;;;15.20;85.50;;;;;;5035940;28;20026;-63
2023/05/15 08:12:23;;;;;;;4.20;3.90;;;15.30;85.50;;;;;;5038046;28;20049;-63
2023/05/15 08:14:53;;;;;;;5.38;4.32;;;15.30;85.30;;;;;;5035021;28;20037;-63
2023/05/15 08:17:19;;;;;;;5.40;4.00;;;15.40;84.90;;;;;;5035804;28;20113;-62
2023/05/15 08:19:45;;;;;;;4.60;4.20;;;15.50;85.00;;;;;;5034565;28;20568;-63
2023/05/15 08:22:11;;;;;;;4.47;4.07;;;15.60;84.90;;;;;;5035778;28;20468;-62
2023/05/15 08:24:37;;;;;;;4.13;3.83;;;15.60;84.60;;;;;;5035389;28;20124;-64
2023/05/15 08:27:07;;;;;;;10.85;4.47;;;15.60;84.30;;;;;;5035550;28;20487;-63
2023/05/15 08:29:36;;;;;;;5.10;4.60;;;15.70;84.30;;;;;;5037348;28;20532;-63
2023/05/15 08:32:03;;;;;;;5.70;4.88;;;15.70;84.40;;;;;;5036226;28;20041;-62
2023/05/15 08:34:28;;;;;;;7.40;5.97;;;15.70;84.30;;;;;;5035384;28;20041;-63
2023/05/15 08:36:55;;;;;;;6.60;4.70;;;15.70;84.40;;;;;;5036518;28;20038;-63
2023/05/15 08:39:21;;;;;;;5.28;4.72;;;15.70;84.20;;;;;;5036968;28;20033;-63
2023/05/15 08:42:02;;;;;;;5.88;5.28;;;15.70;84.10;;;;;;5035488;28;20053;-63
2023/05/15 08:44:28;;;;;;;5.82;5.10;;;15.60;84.30;;;;;;5036950;28;20037;-62
2023/05/15 08:46:54;;;;;;;5.65;5.07;;;15.60;84.40;;;;;;5037431;28;20063;-64
2023/05/15 08:49:50;;;;;;;6.03;5.43;;;15.60;84.60;;;;;;5037479;28;20606;-64
2023/05/15 08:52:16;;;;;;;;;;;15.60;84.30;;;;;;5039315;28;20029;-64
2023/05/15 08:54:42;;;;;;;4.03;3.63;;;15.60;84.50;;;;;;5039805;28;19917;-64
2023/05/15 08:57:08;;;;;;;4.25;3.83;;;15.60;84.00;;;;;;5039798;28;20032;-63
2023/05/15 08:59:36;;;;;;;4.70;3.33;;;15.50;83.60;;;;;;5039538;28;20029;-63
2023/05/15 09:02:02;;;;;;;4.13;3.75;;;15.60;83.90;;;;;;5040996;28;20037;-63
2023/05/15 09:04:27;;;;;;;4.63;4.00;;;15.60;83.80;;;;;;5038228;28;20069;-64
2023/05/15 09:06:54;;;;;;;4.40;4.00;;;15.60;83.80;;;;;;5040354;28;20037;-63
2023/05/15 09:09:20;;;;;;;4.13;3.72;;;15.60;83.90;;;;;;5038255;28;20064;-64
2023/05/15 09:11:47;;;;;;;4.32;3.88;;;15.60;84.00;;;;;;5038548;28;20116;-63
2023/05/15 09:14:13;;;;;;;5.55;4.57;;;15.60;84.10;;;;;;5038958;28;20036;-64
2023/05/15 09:16:38;;;;;;;5.78;5.20;;;15.60;84.20;;;;;;5037590;28;20037;-63
2023/05/15 09:19:05;;;;;;;5.85;4.75;;;15.60;84.50;;;;;;5040985;28;20025;-64
2023/05/15 09:21:31;;;;;;;5.32;4.88;;;15.60;84.50;;;;;;5038288;28;20029;-64
2023/05/15 09:24:36;;;;;;;7.40;5.03;;;15.60;84.60;;;;;;5040587;28;20025;-63
2023/05/15 09:27:05;;;;;;;5.45;4.60;;;15.60;85.50;;;;;;5007313;28;20041;-63
2023/05/15 09:29:32;;;;;;;5.68;5.00;;;15.50;85.30;;;;;;5024608;28;20092;-64
2023/05/15 09:32:02;;;;;;;4.78;4.35;;;15.60;85.20;;;;;;5019899;28;20029;-63
2023/05/15 09:34:33;;;;;;;5.00;4.50;;;15.50;84.80;;;;;;5018625;28;20068;-63
2023/05/15 09:37:00;;;;;;;4.63;3.88;;;15.50;84.60;;;;;;5018598;28;20116;-62
2023/05/15 09:39:26;;;;;;;4.93;3.35;;;15.40;84.40;;;;;;5028068;28;20032;-64
2023/05/15 09:41:52;;;;;;;3.55;3.22;;;15.30;84.20;;;;;;5027759;28;20033;-63
2023/05/15 09:44:27;;;;;;;3.10;2.90;;;15.30;84.30;;;;;;5018358;28;20050;-64
2023/05/15 09:46:53;;;;;;;2.95;2.75;;;15.20;84.00;;;;;;5019484;28;20032;-63
2023/05/15 09:49:19;;;;;;;2.92;2.72;;;15.10;84.00;;;;;;5018796;28;20461;-64
2023/05/15 09:51:47;;;;;;;6.15;5.55;;;15.00;84.00;;;;;;5019091;28;20073;-63
2023/05/15 09:54:21;;;;;;;6.55;5.15;;;14.90;84.30;;;;;;5019670;28;20040;-63
2023/05/15 09:56:47;;;;;;;4.65;3.50;;;14.90;84.60;;;;;;5022170;28;20036;-64
2023/05/15 09:59:15;;;;;;;4.30;3.90;;;14.90;85.00;;;;;;5019925;28;20390;-64
2023/05/15 10:01:45;;;;;;;4.05;3.65;;;14.80;85.20;;;;;;5020548;28;20037;-64
2023/05/15 10:04:11;;;;;;;3.70;3.20;;;14.80;85.40;;;;;;5019738;28;20880;-63
2023/05/15 10:06:42;;;;;;;3.13;2.92;;;14.80;85.70;;;;;;5020037;28;20033;-62
2023/05/15 10:09:09;;;;;;;3.05;2.80;;;14.80;85.60;;;;;;5021170;28;20517;-64
2023/05/15 10:11:37;;;;;;;3.35;3.10;;;14.80;85.60;;;;;;5022503;28;20044;-63
2023/05/15 10:14:05;;;;;;;3.55;3.20;;;14.80;85.80;;;;;;5019948;28;20390;-63
2023/05/15 10:16:34;;;;;;;3.95;3.65;;;14.80;86.20;;;;;;5018332;28;20041;-63
2023/05/15 10:19:04;;;;;;;5.30;4.80;;;14.80;86.70;;;;;;5019042;28;20518;-64
2023/05/15 10:21:35;;;;;;;6.80;5.13;;;14.80;86.90;;;;;;5019452;28;20382;-63
2023/05/15 10:24:02;;;;;;;6.43;4.68;;;14.90;87.80;;;;;;5019300;28;20057;-62
2023/05/15 10:26:38;;;;;;;5.97;4.57;;;14.90;87.60;;;;;;5019829;28;20068;-63
2023/05/15 10:29:08;;;;;;;5.28;4.78;;;14.90;88.30;;;;;;5020976;28;20068;-62
2023/05/15 10:31:35;;;;;;;6.85;5.63;;;14.90;88.30;;;;;;5020476;28;20052;-62
2023/05/15 10:34:02;;;;;;;7.13;5.55;;;15.00;89.30;;;;;;5016750;28;20037;-64
2023/05/15 10:36:27;;;;;;;5.68;5.07;;;15.10;89.80;;;;;;5020477;28;20038;-62
2023/05/15 10:38:53;;;;;;;4.72;4.32;;;15.20;89.90;;;;;;5020280;28;20436;-63
2023/05/15 10:41:20;;;;;;;6.97;6.25;;;15.30;89.70;;;;;;5019167;28;20505;-63
2023/05/15 10:43:48;;;;;;;3.65;3.35;;;15.40;90.10;;;;;;5017155;28;20329;-63
2023/05/15 10:46:15;;;;;;;4.25;3.25;;;15.50;88.50;;;;;;5018942;28;20030;-63
2023/05/15 10:48:40;;;;;;;4.03;3.45;;;15.60;87.70;;;;;;5017603;28;20061;-64
2023/05/15 10:51:16;;;;;;;5.07;2.70;;;15.70;87.30;;;;;;5019228;28;20113;-62
2023/05/15 10:53:46;;;;;;;3.40;2.60;;;15.80;86.40;;;;;;5019273;28;20048;-62
2023/05/15 10:56:13;;;;;;;3.75;3.08;;;15.80;85.90;;;;;;5018476;28;20034;-63
2023/05/15 10:58:45;;;;;;;3.17;2.97;;;15.90;85.70;;;;;;5017787;28;20049;-63
2023/05/15 11:01:25;;;;;;;4.40;3.78;;;16.00;85.20;;;;;;5017309;28;20403;-64
2023/05/15 11:03:51;;;;;;;4.82;4.35;;;16.00;85.40;;;;;;5019705;28;20098;-63
2023/05/15 11:06:26;;;;;;;5.60;4.25;;;16.00;85.50;;;;;;5019588;28;20113;-63
2023/05/15 11:09:21;;;;;;;4.93;4.43;;;16.10;85.70;;;;;;5017997;28;20409;-63
2023/05/15 11:12:02;;;;;;;5.00;4.60;;;16.10;86.30;;;;;;5019668;28;20053;-63
2023/05/15 11:14:30;;;;;;;5.20;4.70;;;16.10;86.00;;;;;;5017651;28;20037;-63
2023/05/15 11:17:05;;;;;;;5.13;4.38;;;16.10;86.20;;;;;;5018394;28;20094;-64
2023/05/15 11:19:35;;;;;;;5.03;4.53;;;16.10;86.00;;;;;;5017419;28;20493;-62
2023/05/15 11:22:07;;;;;;;4.80;4.40;;;16.20;85.90;;;;;;5018027;28;20553;-63
2023/05/15 11:24:46;;;;;;;4.68;4.25;;;16.20;84.80;;;;;;5018502;28;20447;-63
2023/05/15 11:27:15;;;;;;;4.10;3.78;;;16.20;84.50;;;;;;5016630;28;20052;-63
2023/05/15 11:30:04;;;;;;;5.00;4.20;;;16.30;85.10;;;;;;5018713;28;20061;-62
2023/05/15 11:32:46;;;;;;;4.22;3.80;;;16.30;84.60;;;;;;5018132;28;20065;-63
2023/05/15 11:35:23;;;;;;;4.40;4.00;;;16.30;84.70;;;;;;5017181;28;20113;-64
2023/05/15 11:37:52;;;;;;;4.10;3.60;;;16.40;84.80;;;;;;5018202;28;20033;-63
2023/05/15 11:40:20;;;;;;;4.18;3.85;;;16.40;84.90;;;;;;5017471;28;20053;-63
2023/05/15 11:43:21;;;;;;;5.53;4.00;;;16.40;85.00;;;;;;5037008;28;20033;-62
2023/05/15 11:45:56;;;;;;;3.50;3.20;;;16.50;85.10;;;;;;5028378;28;20045;-63
2023/05/15 11:48:23;;;;;;;3.47;3.17;;;16.60;84.40;;;;;;5016896;28;20038;-64
2023/05/15 11:50:52;;;;;;;4.65;3.50;;;16.70;84.50;;;;;;5019357;28;20507;-63
2023/05/15 11:53:18;;;;;;;3.05;2.85;;;16.70;84.80;;;;;;5029686;28;20045;-62
2023/05/15 11:55:44;;;;;;;3.03;2.83;;;16.80;84.50;;;;;;5017644;28;20127;-64
2023/05/15 11:58:15;;;;;;;2.70;1.90;;;16.80;83.50;;;;;;5016811;28;20037;-64
2023/05/15 12:00:42;;;;;;;1.70;1.58;;;16.90;81.80;;;;;;5016451;28;20409;-63
2023/05/15 12:03:15;;;;;;;3.00;1.40;;;16.90;81.30;;;;;;5016961;28;20449;-63
2023/05/15 12:05:41;;;;;;;1.27;1.17;;;16.90;80.50;;;;;;5018948;28;20390;-63
2023/05/15 12:08:11;;;;;;;2.88;1.08;;;16.90;80.80;;;;;;5016574;28;20628;-63
2023/05/15 12:10:44;;;;;;;1.52;1.20;;;16.90;79.90;;;;;;5018908;28;20037;-64
2023/05/15 12:13:14;;;;;;;1.15;1.08;;;16.90;78.60;;;;;;5016135;28;20048;-63
2023/05/15 12:15:41;;;;;;;1.40;1.30;;;16.90;77.90;;;;;;5018540;28;20099;-63
2023/05/15 12:18:08;;;;;;;2.05;1.50;;;17.00;77.90;;;;;;5015360;28;20064;-62
2023/05/15 12:20:35;;;;;;;1.70;1.60;;;17.10;77.40;;;;;;5017313;28;20537;-63
2023/05/15 12:23:06;;;;;;;1.70;1.60;;;17.10;77.90;;;;;;5016038;28;20516;-63
2023/05/15 12:25:33;;;;;;;1.40;1.30;;;17.10;76.80;;;;;;5021149;28;20048;-62
2023/05/15 12:28:00;;;;;;;1.77;1.67;;;17.20;76.80;;;;;;5021820;28;20139;-63
2023/05/15 12:30:26;;;;;;;4.38;2.30;;;17.20;76.60;;;;;;5021274;28;20129;-62
2023/05/15 12:32:52;;;;;;;2.30;2.10;;;17.30;75.40;;;;;;5022045;28;20238;-63
2023/05/15 12:35:18;;;;;;;3.45;2.40;;;17.30;75.30;;;;;;5021589;28;20037;-63
2023/05/15 12:37:44;;;;;;;2.42;2.22;;;17.20;76.50;;;;;;5023241;28;20037;-63
2023/05/15 12:40:10;;;;;;;2.90;2.60;;;17.20;77.20;;;;;;5021610;28;20033;-64
2023/05/15 12:42:43;;;;;;;3.00;2.75;;;17.10;78.30;;;;;;5019439;28;20485;-63
2023/05/15 12:45:17;;;;;;;3.72;2.78;;;17.10;78.70;;;;;;5023055;28;20422;-64
2023/05/15 12:47:44;;;;;;;2.60;2.40;;;17.00;79.10;;;;;;5021025;28;20053;-64
2023/05/15 12:50:18;;;;;;;2.60;2.40;;;16.80;79.80;;;;;;5022650;28;20485;-63